MSC Poh Lin — H8FC — position and weather

sailwx.info

Track history (hours):
 
Tides and Currents Weather Stations Pressure Air Temp Water Temp Dewpoint Dewpoint Depression Visibility Wind Speed Wind Dir Waves Ship Positions

MSC Poh Lin

Last reported at 2015-Sep-03 21:33 UTC. Time now 2015-Sep-05 03:44 UTC.
Position N 45°29' W 125°06'.

Length 294 m; draft 10 m.

Type: Ship (hazmat cat A). MMSI: 357405000.

Date/timePositionNaut miles runAvg speedWind from/ knotsBaromVisibWave heightAir tempDewpointWater temp
2015-Sep-03 21:33N 45°29' W 125°06'1414.4
2015-Sep-03 20:33N 45°43' W 125°07'1414.3
2015-Sep-03 19:33N 45°58' W 125°08'1414.3
2015-Sep-03 18:33N 46°12' W 125°09'1414.2
2015-Sep-03 17:33N 46°26' W 125°10'1414.4
2015-Sep-03 16:33N 46°41' W 125°11'1413.9
2015-Sep-03 15:33N 46°55' W 125°12'9513.0
2015-Sep-03 08:14N 48°30' W 125°03'5414.2
2015-Sep-03 04:25N 48°17' W 123°43'1112.9
2015-Sep-03 03:33N 48°14' W 123°27'10 9.6
2015-Sep-03 02:33N 48°10' W 123°14'1615.6
2015-Sep-03 01:32N 48°12' W 122°50'1413.3
2015-Sep-03 00:29N 48°01' W 122°36'1415.4
2015-Sep-02 23:34N 47°48' W 122°27'1312.9
2015-Sep-02 22:32N 47°36' W 122°21'0 0.1
2015-Sep-02 21:32N 47°36' W 122°21'0 0.0
2015-Sep-02 20:32N 47°36' W 122°21'0 0.0
2015-Sep-02 19:32N 47°36' W 122°21'0 0.0
2015-Sep-02 18:32N 47°36' W 122°20'0 0.0
2015-Sep-02 17:29N 47°36' W 122°21'0 0.0
2015-Sep-02 16:32N 47°36' W 122°21'0 0.0
2015-Sep-02 15:23N 47°36' W 122°21'0 0.0
2015-Sep-02 14:32N 47°36' W 122°20'0 0.0
2015-Sep-02 13:32N 47°36' W 122°21'0 0.0
2015-Sep-02 12:32N 47°36' W 122°21'0 0.0
2015-Sep-02 11:29N 47°36' W 122°21'0 0.0
2015-Sep-02 10:29N 47°36' W 122°21'0 0.0
2015-Sep-02 09:08N 47°36' W 122°20'0 0.1
2015-Sep-02 08:29N 47°36' W 122°21'0 0.0
2015-Sep-02 07:29N 47°36' W 122°21'0 0.0
2015-Sep-02 06:26N 47°36' W 122°21'0 0.0
2015-Sep-02 04:23N 47°36' W 122°21'0 0.0
2015-Sep-02 03:32N 47°36' W 122°21'0 0.0
2015-Sep-02 02:26N 47°36' W 122°21'0 0.0
2015-Sep-02 01:32N 47°36' W 122°21'0 0.0
2015-Sep-01 21:32N 47°36' W 122°21'0 0.0
2015-Sep-01 20:08N 47°36' W 122°21'0 0.0
2015-Sep-01 19:23N 47°36' W 122°21'0 0.0
2015-Sep-01 18:32N 47°36' W 122°21'0 0.0
2015-Sep-01 17:32N 47°36' W 122°20'0 0.0
2015-Sep-01 15:29N 47°36' W 122°21'0 0.0
2015-Sep-01 14:29N 47°36' W 122°21'0 0.0
2015-Sep-01 13:23N 47°36' W 122°21'0 0.0
2015-Sep-01 10:33N 47°36' W 122°21'7 6.5
2015-Sep-01 09:33N 47°40' W 122°28'1615.5
2015-Sep-01 08:34N 47°55' W 122°30'1514.3
2015-Sep-01 07:31N 48°08' W 122°42'1514.2
2015-Sep-01 06:28N 48°12' W 123°04'1414.1
2015-Sep-01 05:31N 48°10' W 123°24'1010.7
2015-Sep-01 04:33N 48°20' W 123°26'1212.3
2015-Sep-01 03:33N 48°28' W 123°12'1515.3
2015-Sep-01 02:33N 48°43' W 123°13'1111.1
2015-Sep-01 01:33N 48°53' W 123°06'9 8.6
2015-Sep-01 00:33N 49°01' W 123°09'0 0.1
2015-Aug-31 23:33N 49°01' W 123°09'0 0.0
2015-Aug-31 22:33N 49°01' W 123°09'0 0.0
2015-Aug-31 21:33N 49°01' W 123°09'0 0.0
2015-Aug-31 20:33N 49°01' W 123°09'0 0.0
2015-Aug-31 19:33N 49°01' W 123°09'0 0.0
2015-Aug-31 18:33N 49°01' W 123°09'0 0.0
2015-Aug-31 17:33N 49°01' W 123°09'0 0.0
2015-Aug-31 16:30N 49°01' W 123°09'0 0.0
2015-Aug-31 15:33N 49°01' W 123°09'0 0.0
2015-Aug-31 14:33N 49°01' W 123°09'0 0.0
2015-Aug-31 13:33N 49°01' W 123°09'0 0.0
2015-Aug-31 12:33N 49°01' W 123°09'0 0.0
2015-Aug-31 11:33N 49°01' W 123°09'0 0.0
2015-Aug-31 10:33N 49°01' W 123°09'0 0.0
2015-Aug-31 09:33N 49°01' W 123°09'0 0.0
2015-Aug-31 08:33N 49°01' W 123°09'0 0.0
2015-Aug-31 07:33N 49°01' W 123°09'0 0.0
2015-Aug-31 06:33N 49°01' W 123°09'6 6.1
2015-Aug-31 05:33N 48°55' W 123°06'1211.8
2015-Aug-31 04:33N 48°44' W 123°08'1313.1
2015-Aug-31 03:33N 48°31' W 123°11'1211.6
2015-Aug-31 02:33N 48°21' W 123°23'1010.1
2015-Aug-31 01:31N 48°13' W 123°32'7 7.4
2015-Aug-31 00:32N 48°14' W 123°43'7 7.4
2015-Aug-30 23:31N 48°14' W 123°54'4410.3
2015-Aug-30 19:14N 48°28' W 124°57'8612.5
2015-Aug-30 12:21N 47°03' W 125°13'1013.0
2015-Aug-30 11:34N 46°53' W 125°12'1312.6
2015-Aug-30 10:33N 46°40' W 125°11'1313.2
2015-Aug-30 09:33N 46°27' W 125°09'1413.8
2015-Aug-30 08:33N 46°13' W 125°09'1414.0
2015-Aug-30 07:33N 45°59' W 125°08'1413.9
2015-Aug-30 06:33N 45°45' W 125°07'1414.0
2015-Aug-30 05:33N 45°31' W 125°07'1613.5
2015-Aug-30 04:23N 45°16' W 125°05'39013.0
2015-Aug-28 22:27N 38°49' W 123°51'1213.3
2015-Aug-28 21:33N 38°38' W 123°45'1313.4
2015-Aug-28 20:33N 38°26' W 123°38'1413.6
2015-Aug-28 19:33N 38°14' W 123°31'1313.4
2015-Aug-28 18:33N 38°02' W 123°24'1413.6
2015-Aug-28 17:33N 37°49' W 123°18'1413.9
2015-Aug-28 16:33N 37°37' W 123°10'1313.4
2015-Aug-28 15:33N 37°25' W 123°03'1313.1
2015-Aug-28 14:33N 37°13' W 122°56'1313.3
2015-Aug-28 13:33N 37°00' W 122°49'1313.1
2015-Aug-28 12:33N 36°49' W 122°42'1313.0
2015-Aug-28 11:33N 36°37' W 122°35'1312.7
2015-Aug-28 10:33N 36°25' W 122°29'1312.7
2015-Aug-28 09:33N 36°14' W 122°21'6812.7
2015-Aug-28 04:10N 35°17' W 121°34'1112.3
2015-Aug-28 03:16N 35°08' W 121°27'912.3
2015-Aug-28 02:33N 35°01' W 121°20'1312.6
2015-Aug-28 01:33N 34°51' W 121°12'1212.1
2015-Aug-28 00:33N 34°41' W 121°03'1312.8
2015-Aug-27 23:34N 34°30' W 120°55'1212.3
2015-Aug-27 22:33N 34°24' W 120°42'1111.0
2015-Aug-27 21:33N 34°21' W 120°29'46 9.0
2015-Aug-27 16:24N 34°09' W 119°35'2110.7
2015-Aug-27 14:27N 34°02' W 119°11'2110.9
2015-Aug-27 12:30N 33°52' W 118°49'1010.6
2015-Aug-27 11:33N 33°47' W 118°38'1110.6
2015-Aug-27 10:34N 33°41' W 118°27'1010.1
2015-Aug-27 09:33N 33°38' W 118°16'7 7.1
2015-Aug-27 08:33N 33°45' W 118°13'1 1.0
2015-Aug-27 07:33N 33°45' W 118°14'0 0.0
2015-Aug-27 06:33N 33°45' W 118°14'0 0.0
2015-Aug-27 05:33N 33°45' W 118°14'0 0.0
2015-Aug-27 04:33N 33°45' W 118°14'0 0.0
2015-Aug-27 03:33N 33°45' W 118°14'0 0.1
2015-Aug-27 02:33N 33°45' W 118°14'0 0.0
2015-Aug-27 01:33N 33°45' W 118°14'0 0.0
2015-Aug-27 00:33N 33°45' W 118°14'0 0.0
2015-Aug-26 23:33N 33°45' W 118°14'0 0.0
2015-Aug-26 22:33N 33°45' W 118°14'0 0.1
2015-Aug-26 21:33N 33°45' W 118°14'0 0.1
2015-Aug-26 20:33N 33°45' W 118°14'0 0.1
2015-Aug-26 19:33N 33°45' W 118°14'0 0.0
2015-Aug-26 18:33N 33°45' W 118°14'0 0.1
2015-Aug-26 17:33N 33°45' W 118°14'0 0.0
2015-Aug-26 16:33N 33°45' W 118°14'0 0.1
2015-Aug-26 15:33N 33°45' W 118°14'0 0.0
2015-Aug-26 14:33N 33°45' W 118°14'0 0.4
2015-Aug-26 13:34N 33°45' W 118°13'7 6.6
2015-Aug-26 12:34N 33°39' W 118°10'7 7.0
2015-Aug-26 11:34N 33°32' W 118°08'8 8.0
2015-Aug-26 10:34N 33°25' W 118°05'8 8.0
2015-Aug-26 09:34N 33°17' W 118°02'10 9.6
2015-Aug-26 08:34N 33°08' W 117°59'9 9.3
2015-Aug-26 07:34N 32°59' W 117°55'9 9.5
2015-Aug-26 06:34N 32°50' W 117°51'1211.6
2015-Aug-26 05:33N 32°39' W 117°49'1919.3
2015-Aug-26 04:33N 32°20' W 117°42'2020.1
2015-Aug-26 03:34N 32°01' W 117°34'4320.0
2015-Aug-26 01:24N 31°21' W 117°18'2520.1
2015-Aug-26 00:10N 30°57' W 117°08'16220.4
2015-Aug-25 16:15N 28°24' W 116°09'  
Track history (hours):
 
Tides and Currents Weather Stations Pressure Air Temp Water Temp Dewpoint Dewpoint Depression Visibility Wind Speed Wind Dir Waves Ship Positions

MSC Poh Lin

Last reported at 2015-Sep-03 21:33 UTC. Time now 2015-Sep-05 03:44 UTC.
Position N 45°29' W 125°06'.

Length 294 m; draft 10 m.

Type: Ship (hazmat cat A). MMSI: 357405000.

Date/timePositionNaut miles runAvg speedWind from/ knotsBaromVisibWave heightAir tempDewpointWater temp
2015-Sep-03 21:33N 45°29' W 125°06'1414.4
2015-Sep-03 20:33N 45°43' W 125°07'1414.3
2015-Sep-03 19:33N 45°58' W 125°08'1414.3
2015-Sep-03 18:33N 46°12' W 125°09'1414.2
2015-Sep-03 17:33N 46°26' W 125°10'1414.4
2015-Sep-03 16:33N 46°41' W 125°11'1413.9
2015-Sep-03 15:33N 46°55' W 125°12'9513.0
2015-Sep-03 08:14N 48°30' W 125°03'5414.2
2015-Sep-03 04:25N 48°17' W 123°43'1112.9
2015-Sep-03 03:33N 48°14' W 123°27'10 9.6
2015-Sep-03 02:33N 48°10' W 123°14'1615.6
2015-Sep-03 01:32N 48°12' W 122°50'1413.3
2015-Sep-03 00:29N 48°01' W 122°36'1415.4
2015-Sep-02 23:34N 47°48' W 122°27'1312.9
2015-Sep-02 22:32N 47°36' W 122°21'0 0.1
2015-Sep-02 21:32N 47°36' W 122°21'0 0.0
2015-Sep-02 20:32N 47°36' W 122°21'0 0.0
2015-Sep-02 19:32N 47°36' W 122°21'0 0.0
2015-Sep-02 18:32N 47°36' W 122°20'0 0.0
2015-Sep-02 17:29N 47°36' W 122°21'0 0.0
2015-Sep-02 16:32N 47°36' W 122°21'0 0.0
2015-Sep-02 15:23N 47°36' W 122°21'0 0.0
2015-Sep-02 14:32N 47°36' W 122°20'0 0.0
2015-Sep-02 13:32N 47°36' W 122°21'0 0.0
2015-Sep-02 12:32N 47°36' W 122°21'0 0.0
2015-Sep-02 11:29N 47°36' W 122°21'0 0.0
2015-Sep-02 10:29N 47°36' W 122°21'0 0.0
2015-Sep-02 09:08N 47°36' W 122°20'0 0.1
2015-Sep-02 08:29N 47°36' W 122°21'0 0.0
2015-Sep-02 07:29N 47°36' W 122°21'0 0.0
2015-Sep-02 06:26N 47°36' W 122°21'0 0.0
2015-Sep-02 04:23N 47°36' W 122°21'0 0.0
2015-Sep-02 03:32N 47°36' W 122°21'0 0.0
2015-Sep-02 02:26N 47°36' W 122°21'0 0.0
2015-Sep-02 01:32N 47°36' W 122°21'0 0.0
2015-Sep-01 21:32N 47°36' W 122°21'0 0.0
2015-Sep-01 20:08N 47°36' W 122°21'0 0.0
2015-Sep-01 19:23N 47°36' W 122°21'0 0.0
2015-Sep-01 18:32N 47°36' W 122°21'0 0.0
2015-Sep-01 17:32N 47°36' W 122°20'0 0.0
2015-Sep-01 15:29N 47°36' W 122°21'0 0.0
2015-Sep-01 14:29N 47°36' W 122°21'0 0.0
2015-Sep-01 13:23N 47°36' W 122°21'0 0.0
2015-Sep-01 10:33N 47°36' W 122°21'7 6.5
2015-Sep-01 09:33N 47°40' W 122°28'1615.5
2015-Sep-01 08:34N 47°55' W 122°30'1514.3
2015-Sep-01 07:31N 48°08' W 122°42'1514.2
2015-Sep-01 06:28N 48°12' W 123°04'1414.1
2015-Sep-01 05:31N 48°10' W 123°24'1010.7
2015-Sep-01 04:33N 48°20' W 123°26'1212.3
2015-Sep-01 03:33N 48°28' W 123°12'1515.3
2015-Sep-01 02:33N 48°43' W 123°13'1111.1
2015-Sep-01 01:33N 48°53' W 123°06'9 8.6
2015-Sep-01 00:33N 49°01' W 123°09'0 0.1
2015-Aug-31 23:33N 49°01' W 123°09'0 0.0
2015-Aug-31 22:33N 49°01' W 123°09'0 0.0
2015-Aug-31 21:33N 49°01' W 123°09'0 0.0
2015-Aug-31 20:33N 49°01' W 123°09'0 0.0
2015-Aug-31 19:33N 49°01' W 123°09'0 0.0
2015-Aug-31 18:33N 49°01' W 123°09'0 0.0
2015-Aug-31 17:33N 49°01' W 123°09'0 0.0
2015-Aug-31 16:30N 49°01' W 123°09'0 0.0
2015-Aug-31 15:33N 49°01' W 123°09'0 0.0
2015-Aug-31 14:33N 49°01' W 123°09'0 0.0
2015-Aug-31 13:33N 49°01' W 123°09'0 0.0
2015-Aug-31 12:33N 49°01' W 123°09'0 0.0
2015-Aug-31 11:33N 49°01' W 123°09'0 0.0
2015-Aug-31 10:33N 49°01' W 123°09'0 0.0
2015-Aug-31 09:33N 49°01' W 123°09'0 0.0
2015-Aug-31 08:33N 49°01' W 123°09'0 0.0
2015-Aug-31 07:33N 49°01' W 123°09'0 0.0
2015-Aug-31 06:33N 49°01' W 123°09'6 6.1
2015-Aug-31 05:33N 48°55' W 123°06'1211.8
2015-Aug-31 04:33N 48°44' W 123°08'1313.1
2015-Aug-31 03:33N 48°31' W 123°11'1211.6
2015-Aug-31 02:33N 48°21' W 123°23'1010.1
2015-Aug-31 01:31N 48°13' W 123°32'7 7.4
2015-Aug-31 00:32N 48°14' W 123°43'7 7.4
2015-Aug-30 23:31N 48°14' W 123°54'4410.3
2015-Aug-30 19:14N 48°28' W 124°57'8612.5
2015-Aug-30 12:21N 47°03' W 125°13'1013.0
2015-Aug-30 11:34N 46°53' W 125°12'1312.6
2015-Aug-30 10:33N 46°40' W 125°11'1313.2
2015-Aug-30 09:33N 46°27' W 125°09'1413.8
2015-Aug-30 08:33N 46°13' W 125°09'1414.0
2015-Aug-30 07:33N 45°59' W 125°08'1413.9
2015-Aug-30 06:33N 45°45' W 125°07'1414.0
2015-Aug-30 05:33N 45°31' W 125°07'1613.5
2015-Aug-30 04:23N 45°16' W 125°05'39013.0
2015-Aug-28 22:27N 38°49' W 123°51'1213.3
2015-Aug-28 21:33N 38°38' W 123°45'1313.4
2015-Aug-28 20:33N 38°26' W 123°38'1413.6
2015-Aug-28 19:33N 38°14' W 123°31'1313.4
2015-Aug-28 18:33N 38°02' W 123°24'1413.6
2015-Aug-28 17:33N 37°49' W 123°18'1413.9
2015-Aug-28 16:33N 37°37' W 123°10'1313.4
2015-Aug-28 15:33N 37°25' W 123°03'1313.1
2015-Aug-28 14:33N 37°13' W 122°56'1313.3
2015-Aug-28 13:33N 37°00' W 122°49'1313.1
2015-Aug-28 12:33N 36°49' W 122°42'1313.0
2015-Aug-28 11:33N 36°37' W 122°35'1312.7
2015-Aug-28 10:33N 36°25' W 122°29'1312.7
2015-Aug-28 09:33N 36°14' W 122°21'6812.7
2015-Aug-28 04:10N 35°17' W 121°34'1112.3
2015-Aug-28 03:16N 35°08' W 121°27'912.3
2015-Aug-28 02:33N 35°01' W 121°20'1312.6
2015-Aug-28 01:33N 34°51' W 121°12'1212.1
2015-Aug-28 00:33N 34°41' W 121°03'1312.8
2015-Aug-27 23:34N 34°30' W 120°55'1212.3
2015-Aug-27 22:33N 34°24' W 120°42'1111.0
2015-Aug-27 21:33N 34°21' W 120°29'46 9.0
2015-Aug-27 16:24N 34°09' W 119°35'2110.7
2015-Aug-27 14:27N 34°02' W 119°11'2110.9
2015-Aug-27 12:30N 33°52' W 118°49'1010.6
2015-Aug-27 11:33N 33°47' W 118°38'1110.6
2015-Aug-27 10:34N 33°41' W 118°27'1010.1
2015-Aug-27 09:33N 33°38' W 118°16'7 7.1
2015-Aug-27 08:33N 33°45' W 118°13'1 1.0
2015-Aug-27 07:33N 33°45' W 118°14'0 0.0
2015-Aug-27 06:33N 33°45' W 118°14'0 0.0
2015-Aug-27 05:33N 33°45' W 118°14'0 0.0
2015-Aug-27 04:33N 33°45' W 118°14'0 0.0
2015-Aug-27 03:33N 33°45' W 118°14'0 0.1
2015-Aug-27 02:33N 33°45' W 118°14'0 0.0
2015-Aug-27 01:33N 33°45' W 118°14'0 0.0
2015-Aug-27 00:33N 33°45' W 118°14'0 0.0
2015-Aug-26 23:33N 33°45' W 118°14'0 0.0
2015-Aug-26 22:33N 33°45' W 118°14'0 0.1
2015-Aug-26 21:33N 33°45' W 118°14'0 0.1
2015-Aug-26 20:33N 33°45' W 118°14'0 0.1
2015-Aug-26 19:33N 33°45' W 118°14'0 0.0
2015-Aug-26 18:33N 33°45' W 118°14'0 0.1
2015-Aug-26 17:33N 33°45' W 118°14'0 0.0
2015-Aug-26 16:33N 33°45' W 118°14'0 0.1
2015-Aug-26 15:33N 33°45' W 118°14'0 0.0
2015-Aug-26 14:33N 33°45' W 118°14'0 0.4
2015-Aug-26 13:34N 33°45' W 118°13'7 6.6
2015-Aug-26 12:34N 33°39' W 118°10'7 7.0
2015-Aug-26 11:34N 33°32' W 118°08'8 8.0
2015-Aug-26 10:34N 33°25' W 118°05'8 8.0
2015-Aug-26 09:34N 33°17' W 118°02'10 9.6
2015-Aug-26 08:34N 33°08' W 117°59'9 9.3
2015-Aug-26 07:34N 32°59' W 117°55'9 9.5
2015-Aug-26 06:34N 32°50' W 117°51'1211.6
2015-Aug-26 05:33N 32°39' W 117°49'1919.3
2015-Aug-26 04:33N 32°20' W 117°42'2020.1
2015-Aug-26 03:34N 32°01' W 117°34'4320.0
2015-Aug-26 01:24N 31°21' W 117°18'2520.1
2015-Aug-26 00:10N 30°57' W 117°08'16220.4
2015-Aug-25 16:15N 28°24' W 116°09'  

Dump ship's entire track history